createdAt,value
2019-04-22T00:00:16.706Z,5.43
2019-04-22T00:02:20.702Z,5.53
2019-04-22T00:04:41.780Z,4.80
2019-04-22T00:07:01.367Z,4.80
2019-04-22T00:09:05.517Z,4.00
2019-04-22T00:11:16.190Z,4.57
2019-04-22T00:13:23.751Z,4.70
2019-04-22T00:15:15.736Z,4.60
2019-04-22T00:17:35.352Z,4.80
2019-04-22T00:19:38.884Z,4.67
2019-04-22T00:21:43.213Z,4.90
2019-04-22T00:23:39.377Z,5.20
2019-04-22T00:25:53.901Z,4.50
2019-04-22T00:27:56.736Z,4.80
2019-04-22T00:32:19.822Z,5.00
2019-04-22T00:34:27.125Z,5.03
2019-04-22T00:36:36.608Z,4.73
2019-04-22T00:38:44.176Z,4.70
2019-04-22T00:40:44.583Z,5.00
2019-04-22T00:42:56.560Z,5.07
2019-04-22T00:45:03.321Z,5.27
2019-04-22T00:47:12.212Z,5.00
2019-04-22T00:49:53.013Z,5.23
2019-04-22T00:51:22.665Z,4.93
2019-04-22T00:53:23.840Z,4.80
2019-04-22T00:55:24.810Z,5.37
2019-04-22T00:59:42.128Z,5.27
2019-04-22T01:01:36.997Z,5.20
2019-04-22T01:05:56.845Z,4.50
2019-04-22T01:07:57.035Z,4.57
2019-04-22T01:10:06.952Z,4.47
2019-04-22T01:12:16.622Z,4.67
2019-04-22T01:14:14.515Z,4.70
2019-04-22T01:18:23.920Z,4.50
2019-04-22T01:22:34.200Z,4.20
2019-04-22T01:24:41.775Z,4.53
2019-04-22T01:26:43.600Z,4.30
2019-04-22T01:28:48.968Z,4.40
2019-04-22T01:30:49.197Z,4.87
2019-04-22T01:32:50.312Z,4.87
2019-04-22T01:35:05.853Z,4.93
2019-04-22T01:37:14.159Z,4.40
2019-04-22T01:39:21.872Z,4.80
2019-04-22T01:41:42.299Z,4.80
2019-04-22T01:43:40.917Z,4.60
2019-04-22T01:45:49.710Z,4.43
2019-04-22T01:47:53.285Z,4.27
2019-04-22T01:49:55.997Z,4.47
2019-04-22T01:52:07.183Z,4.57
2019-04-22T01:54:12.888Z,4.30
2019-04-22T01:56:14.047Z,4.40
2019-04-22T01:58:10.982Z,4.77
2019-04-22T02:00:14.018Z,4.50
2019-04-22T02:02:31.719Z,4.30
2019-04-22T02:04:36.788Z,5.10
2019-04-22T02:06:45.672Z,4.50
2019-04-22T02:08:52.657Z,4.60
2019-04-22T02:12:54.020Z,4.50
2019-04-22T02:15:00.777Z,4.23
2019-04-22T02:17:14.527Z,4.40
2019-04-22T02:19:19.174Z,4.23
2019-04-22T02:21:13.875Z,4.10
2019-04-22T02:23:45.898Z,4.33
2019-04-22T02:25:34.533Z,4.23
2019-04-22T02:27:43.410Z,4.57
2019-04-22T02:31:59.387Z,4.53
2019-04-22T02:36:20.162Z,4.53
2019-04-22T02:38:30.729Z,4.30
2019-04-22T02:40:17.189Z,4.17
2019-04-22T02:44:31.360Z,4.47
2019-04-22T02:46:47.295Z,4.13
2019-04-22T02:48:53.858Z,4.33
2019-04-22T02:50:46.152Z,4.90
2019-04-22T02:52:50.641Z,4.40
2019-04-22T02:57:07.979Z,4.27
2019-04-22T03:01:24.828Z,4.40
2019-04-22T03:05:27.818Z,4.50
2019-04-22T03:07:27.022Z,4.40
2019-04-22T03:09:29.933Z,4.47
2019-04-22T03:11:52.899Z,4.47
2019-04-22T03:13:55.931Z,4.70
2019-04-22T03:16:01.210Z,4.27
2019-04-22T03:18:00.884Z,4.10
2019-04-22T03:20:06.284Z,3.93
2019-04-22T03:22:08.200Z,4.77
2019-04-22T03:24:23.940Z,4.40
2019-04-22T03:28:33.103Z,4.47
2019-04-22T03:37:17.663Z,4.57
2019-04-22T03:39:15.426Z,4.47
2019-04-22T03:43:08.040Z,4.27
2019-04-22T03:45:20.254Z,5.27
2019-04-22T03:51:43.419Z,4.60
2019-04-22T03:53:59.203Z,4.40
2019-04-22T03:55:38.467Z,4.70
2019-04-22T04:02:15.732Z,4.60
2019-04-22T04:04:09.128Z,4.47
2019-04-22T04:06:00.456Z,4.60
2019-04-22T04:08:15.832Z,4.50
2019-04-22T04:16:41.300Z,5.10
2019-04-22T04:18:46.666Z,5.20
2019-04-22T04:20:54.489Z,4.80
2019-04-22T04:25:08.189Z,4.70
2019-04-22T04:27:20.470Z,5.57
2019-04-22T04:29:26.299Z,5.30
2019-04-22T04:31:24.564Z,4.90
2019-04-22T04:37:42.626Z,5.57
2019-04-22T04:39:34.874Z,5.13
2019-04-22T04:41:42.086Z,4.93
2019-04-22T04:46:02.332Z,5.30
2019-04-22T04:47:54.846Z,5.20
2019-04-22T04:50:12.035Z,4.93
2019-04-22T04:52:14.485Z,5.10
2019-04-22T04:54:24.289Z,4.60
2019-04-22T04:56:23.250Z,4.90
2019-04-22T05:04:59.996Z,5.13
2019-04-22T05:06:53.688Z,4.90
2019-04-22T05:10:56.219Z,4.43
2019-04-22T05:15:11.255Z,4.43
2019-04-22T05:17:12.843Z,4.90
2019-04-22T05:19:15.811Z,4.80
2019-04-22T05:21:16.415Z,4.93
2019-04-22T05:27:39.497Z,4.60
2019-04-22T05:29:46.498Z,4.73
2019-04-22T05:31:47.900Z,4.67
2019-04-22T05:33:51.809Z,4.43
2019-04-22T05:35:56.461Z,4.27
2019-04-22T05:38:04.504Z,4.73
2019-04-22T05:40:09.022Z,4.80
2019-04-22T05:44:14.662Z,4.67
2019-04-22T05:46:26.588Z,4.80
2019-04-22T05:48:24.310Z,5.27
2019-04-22T05:50:26.931Z,4.57
2019-04-22T05:52:40.401Z,4.53
2019-04-22T05:54:50.876Z,4.97
2019-04-22T05:56:42.933Z,4.90
2019-04-22T05:58:59.919Z,4.90
2019-04-22T06:03:11.660Z,5.07
2019-04-22T06:05:17.304Z,4.87
2019-04-22T06:07:22.825Z,5.00
2019-04-22T06:09:28.818Z,5.17
2019-04-22T06:11:46.482Z,5.30
2019-04-22T06:13:41.843Z,5.10
2019-04-22T06:15:48.851Z,5.23
2019-04-22T06:18:06.535Z,5.13
2019-04-22T06:20:07.571Z,5.23
2019-04-22T06:22:15.436Z,5.43
2019-04-22T06:24:18.535Z,5.77
2019-04-22T06:30:36.002Z,5.63
2019-04-22T06:32:55.483Z,5.60
2019-04-22T06:34:43.148Z,5.87
2019-04-22T06:36:53.927Z,5.13
2019-04-22T06:38:55.943Z,6.07
2019-04-22T06:41:07.217Z,6.57
2019-04-22T06:45:15.169Z,6.70
2019-04-22T06:47:37.937Z,6.70
2019-04-22T06:49:26.836Z,6.23
2019-04-22T06:51:33.008Z,6.30
2019-04-22T06:53:37.440Z,5.83
2019-04-22T06:55:56.336Z,6.20
2019-04-22T06:57:43.670Z,6.00
2019-04-22T06:59:51.564Z,5.70
2019-04-22T07:02:00.841Z,6.20
2019-04-22T07:04:01.506Z,5.87
2019-04-22T07:06:09.517Z,5.37
2019-04-22T07:08:30.474Z,5.37
2019-04-22T07:12:24.311Z,5.47
2019-04-22T07:14:23.865Z,4.97
2019-04-22T07:18:38.635Z,5.23
2019-04-22T07:20:44.305Z,5.30
2019-04-22T07:27:08.615Z,5.40
2019-04-22T07:29:23.632Z,5.10
2019-04-22T07:31:11.630Z,5.50
2019-04-22T07:33:27.884Z,4.87
2019-04-22T07:35:28.918Z,5.57
2019-04-22T07:37:38.824Z,5.30
2019-04-22T07:39:35.437Z,4.83
2019-04-22T07:41:41.042Z,5.10
2019-04-22T07:44:02.961Z,5.10
2019-04-22T07:45:51.873Z,5.10
2019-04-22T07:48:02.730Z,5.73
2019-04-22T07:52:05.041Z,6.00
2019-04-22T07:54:15.736Z,5.13
2019-04-22T07:56:23.511Z,4.87
2019-04-22T07:58:25.819Z,5.37
2019-04-22T08:00:34.127Z,5.27
2019-04-22T08:02:44.221Z,5.23
2019-04-22T08:04:55.780Z,5.40
2019-04-22T08:06:52.277Z,5.20
2019-04-22T08:08:55.606Z,5.30
2019-04-22T08:11:30.931Z,5.13
2019-04-22T08:13:03.870Z,5.37
2019-04-22T08:15:12.984Z,5.40
2019-04-22T08:17:43.469Z,4.87
2019-04-22T08:19:23.126Z,5.60
2019-04-22T08:21:23.696Z,5.90
2019-04-22T08:23:36.813Z,5.37
2019-04-22T08:25:38.847Z,5.40
2019-04-22T08:27:42.823Z,5.27
2019-04-22T08:30:00.118Z,5.60
2019-04-22T08:31:56.540Z,5.63
2019-04-22T08:34:02.087Z,4.90
2019-04-22T08:36:15.130Z,5.23
2019-04-22T08:38:11.631Z,5.20
2019-04-22T08:40:21.486Z,5.23
2019-04-22T08:42:27.464Z,5.57
2019-04-22T08:44:40.192Z,5.10
2019-04-22T08:48:37.106Z,5.50
2019-04-22T08:50:44.196Z,4.97
2019-04-22T08:52:58.739Z,5.07
2019-04-22T08:54:57.430Z,4.80
2019-04-22T08:57:07.343Z,5.17
2019-04-22T08:59:14.909Z,5.10
2019-04-22T09:01:17.693Z,4.70
2019-04-22T09:03:15.943Z,4.93
2019-04-22T09:05:37.401Z,5.60
2019-04-22T09:09:39.142Z,5.10
2019-04-22T09:11:46.977Z,4.63
2019-04-22T09:13:50.671Z,4.63
2019-04-22T09:15:49.637Z,4.80
2019-04-22T09:18:02.277Z,5.00
2019-04-22T09:20:04.648Z,4.73
2019-04-22T09:22:13.707Z,4.90
2019-04-22T09:26:23.970Z,4.30
2019-04-22T09:28:23.274Z,4.70
2019-04-22T09:30:42.918Z,4.33
2019-04-22T09:32:38.600Z,4.50
2019-04-22T09:36:56.167Z,4.80
2019-04-22T09:38:52.690Z,4.17
2019-04-22T09:41:00.919Z,4.27
2019-04-22T09:43:05.034Z,4.57
2019-04-22T09:45:13.794Z,4.50
2019-04-22T09:47:19.081Z,4.50
2019-04-22T09:49:29.190Z,4.67
2019-04-22T09:51:25.363Z,4.33
2019-04-22T09:53:38.688Z,4.70
2019-04-22T09:55:37.478Z,4.50
2019-04-22T09:57:48.252Z,4.70
2019-04-22T09:59:57.497Z,4.20
2019-04-22T10:02:13.327Z,4.30
2019-04-22T10:06:17.327Z,4.63
2019-04-22T10:08:18.655Z,4.13
2019-04-22T10:12:30.476Z,4.53
2019-04-22T10:16:39.324Z,4.47
2019-04-22T10:18:41.287Z,4.70
2019-04-22T10:20:45.916Z,4.40
2019-04-22T10:23:06.216Z,5.10
2019-04-22T10:24:58.247Z,4.57
2019-04-22T10:26:57.097Z,4.40
2019-04-22T10:31:20.686Z,5.20
2019-04-22T10:33:11.676Z,5.70
2019-04-22T10:35:09.225Z,4.97
2019-04-22T10:37:14.211Z,4.57
2019-04-22T10:39:16.217Z,4.67
2019-04-22T10:41:20.718Z,4.27
2019-04-22T10:43:25.318Z,4.27
2019-04-22T10:45:30.367Z,3.97
2019-04-22T10:47:34.212Z,4.17
2019-04-22T10:49:38.303Z,4.50
2019-04-22T10:51:42.387Z,4.40
2019-04-22T10:53:47.156Z,4.20
2019-04-22T10:55:51.648Z,4.80
2019-04-22T10:57:56.812Z,4.33
2019-04-22T11:00:00.986Z,4.60
2019-04-22T11:02:05.540Z,3.97
2019-04-22T11:04:11.183Z,4.30
2019-04-22T11:06:15.134Z,3.97
2019-04-22T11:08:25.033Z,4.60
2019-04-22T11:10:41.294Z,4.17
2019-04-22T11:12:32.287Z,4.10
2019-04-22T11:14:35.185Z,3.90
2019-04-22T11:16:39.479Z,4.00
2019-04-22T11:18:43.459Z,4.77
2019-04-22T11:20:47.467Z,4.33
2019-04-22T11:22:52.954Z,4.30
2019-04-22T11:24:59.822Z,4.20
2019-04-22T11:27:03.216Z,4.27
2019-04-22T11:29:07.696Z,3.90
2019-04-22T11:31:12.482Z,4.03
2019-04-22T11:33:16.369Z,4.47
2019-04-22T11:35:21.529Z,4.03
2019-04-22T11:37:25.554Z,4.00
2019-04-22T11:39:31.135Z,4.43
2019-04-22T11:41:36.162Z,3.80
2019-04-22T11:43:41.197Z,3.80
2019-04-22T11:45:45.170Z,4.17
2019-04-22T11:47:48.999Z,3.70
2019-04-22T11:49:54.348Z,3.93
2019-04-22T11:51:58.958Z,4.30
2019-04-22T11:54:03.293Z,4.57
2019-04-22T11:56:07.019Z,4.03
2019-04-22T11:58:10.726Z,4.23
2019-04-22T12:00:16.901Z,3.90
2019-04-22T12:02:23.456Z,3.87
2019-04-22T12:04:27.698Z,3.90
2019-04-22T12:06:31.786Z,3.70
2019-04-22T12:08:35.753Z,3.80
2019-04-22T12:10:49.447Z,3.80
2019-04-22T12:12:48.257Z,3.97
2019-04-22T12:14:52.328Z,3.90
2019-04-22T12:16:57.306Z,3.00
2019-04-22T12:19:01.113Z,3.40
2019-04-22T12:21:05.430Z,3.67
2019-04-22T12:23:09.490Z,3.30
2019-04-22T12:25:28.051Z,3.53
2019-04-22T12:27:24.016Z,3.20
2019-04-22T12:29:26.918Z,3.80
2019-04-22T12:31:31.580Z,3.10
2019-04-22T12:33:37.050Z,3.53
2019-04-22T12:35:42.120Z,3.03
2019-04-22T12:37:52.929Z,3.33
2019-04-22T12:39:53.087Z,2.90
2019-04-22T12:41:58.279Z,3.53
2019-04-22T12:44:03.313Z,3.40
2019-04-22T12:46:07.985Z,3.40
2019-04-22T12:48:12.898Z,2.83
2019-04-22T12:50:24.075Z,3.57
2019-04-22T12:52:32.342Z,3.23
2019-04-22T12:54:29.104Z,3.70
2019-04-22T12:56:33.437Z,2.90
2019-04-22T12:58:38.004Z,3.40
2019-04-22T13:00:42.808Z,3.13
2019-04-22T13:02:47.340Z,3.23
2019-04-22T13:04:52.315Z,3.10
2019-04-22T13:06:57.602Z,3.60
2019-04-22T13:09:02.197Z,3.70
2019-04-22T13:11:11.739Z,3.57
2019-04-22T13:13:11.516Z,3.10
2019-04-22T13:15:18.010Z,3.17
2019-04-22T13:17:23.160Z,3.23
2019-04-22T13:19:28.358Z,3.80
2019-04-22T13:21:33.058Z,3.53
2019-04-22T13:23:37.067Z,3.30
2019-04-22T13:25:40.953Z,3.00
2019-04-22T13:27:44.967Z,2.90
2019-04-22T13:29:48.771Z,3.10
2019-04-22T13:31:53.128Z,2.73
2019-04-22T13:33:59.718Z,3.00
2019-04-22T13:36:03.653Z,3.10
2019-04-22T13:38:08.945Z,3.55
2019-04-22T13:40:14.912Z,3.30
2019-04-22T13:42:21.716Z,2.80
2019-04-22T13:44:25.061Z,3.17
2019-04-22T13:46:31.703Z,3.08
2019-04-22T13:49:02.048Z,3.10
2019-04-22T13:53:30.369Z,3.03
2019-04-22T13:55:22.115Z,3.30
2019-04-22T13:57:18.706Z,3.10
2019-04-22T13:59:10.222Z,2.80
2019-04-22T14:01:12.857Z,2.90
2019-04-22T14:03:37.895Z,2.93
2019-04-22T14:07:32.801Z,3.77
2019-04-22T14:09:38.007Z,3.07
2019-04-22T14:11:49.393Z,2.90
2019-04-22T14:13:47.983Z,3.37
2019-04-22T14:15:52.972Z,4.00
2019-04-22T14:17:57.099Z,3.30
2019-04-22T14:20:00.807Z,3.10
2019-04-22T14:22:04.674Z,3.57
2019-04-22T14:24:10.665Z,3.00
2019-04-22T14:26:15.313Z,3.73
2019-04-22T14:28:21.474Z,3.07
2019-04-22T14:30:26.246Z,3.13
2019-04-22T14:32:31.871Z,2.80
2019-04-22T14:34:36.260Z,2.73
2019-04-22T14:36:41.303Z,2.80
2019-04-22T14:38:45.936Z,3.13
2019-04-22T14:40:49.996Z,2.80
2019-04-22T14:43:17.481Z,2.50
2019-04-22T14:45:30.403Z,2.50
2019-04-22T14:47:26.088Z,2.83
2019-04-22T14:49:37.088Z,3.00
2019-04-22T14:51:40.862Z,2.93
2019-04-22T14:53:41.625Z,2.87
2019-04-22T14:55:30.733Z,3.10
2019-04-22T14:57:34.297Z,3.00
2019-04-22T14:59:39.820Z,2.80
2019-04-22T15:01:43.658Z,2.73
2019-04-22T15:03:48.384Z,3.13
2019-04-22T15:05:52.397Z,2.63
2019-04-22T15:07:57.174Z,2.77
2019-04-22T15:10:01.929Z,2.80
2019-04-22T15:12:16.423Z,2.40
2019-04-22T15:14:11.652Z,2.87
2019-04-22T15:16:18.248Z,2.70
2019-04-22T15:18:41.953Z,3.10
2019-04-22T15:20:56.548Z,3.17
2019-04-22T15:23:00.380Z,3.10
2019-04-22T15:25:05.604Z,2.83
2019-04-22T15:27:10.565Z,3.03
2019-04-22T15:29:15.602Z,2.77
2019-04-22T15:31:19.489Z,3.23
2019-04-22T15:33:23.503Z,2.70
2019-04-22T15:35:27.399Z,2.70
2019-04-22T15:37:31.211Z,2.83
2019-04-22T15:39:36.304Z,2.73
2019-04-22T15:41:41.109Z,3.10
2019-04-22T15:43:45.751Z,2.63
2019-04-22T15:45:50.769Z,2.50
2019-04-22T15:47:55.956Z,2.50
2019-04-22T15:50:00.290Z,3.00
2019-04-22T15:52:06.087Z,2.50
2019-04-22T15:54:09.832Z,2.53
2019-04-22T15:56:14.722Z,4.50
2019-04-22T15:58:19.764Z,3.10
2019-04-22T16:00:37.315Z,2.90
2019-04-22T16:02:29.816Z,2.80
2019-04-22T16:04:34.715Z,3.00
2019-04-22T16:06:38.821Z,2.57
2019-04-22T16:08:43.892Z,2.47
2019-04-22T16:10:48.177Z,2.80
2019-04-22T16:13:02.513Z,2.70
2019-04-22T16:14:59.262Z,2.75
2019-04-22T16:17:04.252Z,2.75
2019-04-22T16:19:08.747Z,2.50
2019-04-22T16:21:13.195Z,2.27
2019-04-22T16:23:22.379Z,2.52
2019-04-22T16:27:50.591Z,2.50
2019-04-22T16:29:55.137Z,2.60
2019-04-22T16:31:59.024Z,2.67
2019-04-22T16:34:02.863Z,2.60
2019-04-22T16:36:07.109Z,2.47
2019-04-22T16:38:11.073Z,2.33
2019-04-22T16:40:14.817Z,2.20
2019-04-22T16:42:33.162Z,2.53
2019-04-22T16:44:24.870Z,2.70
2019-04-22T16:46:29.754Z,2.47
2019-04-22T16:48:33.759Z,2.42
2019-04-22T16:50:40.968Z,2.47
2019-04-22T16:52:43.954Z,2.27
2019-04-22T16:54:47.718Z,2.30
2019-04-22T16:56:52.246Z,2.30
2019-04-22T16:58:56.821Z,2.53
2019-04-22T17:01:00.750Z,2.17
2019-04-22T17:03:12.969Z,2.13
2019-04-22T17:05:19.805Z,2.25
2019-04-22T17:07:24.466Z,2.30
2019-04-22T17:09:33.919Z,2.23
2019-04-22T17:11:38.143Z,2.17
2019-04-22T17:13:42.438Z,2.00
2019-04-22T17:15:54.289Z,1.87
2019-04-22T17:17:58.992Z,2.30
2019-04-22T17:20:03.148Z,1.97
2019-04-22T17:22:07.871Z,2.17
2019-04-22T17:24:11.965Z,2.20
2019-04-22T17:26:16.744Z,2.27
2019-04-22T17:28:21.587Z,2.20
2019-04-22T17:30:26.414Z,2.40
2019-04-22T17:32:31.764Z,2.20
2019-04-22T17:34:35.926Z,2.30
2019-04-22T17:36:40.542Z,2.60
2019-04-22T17:38:53.165Z,2.13
2019-04-22T17:41:06.472Z,2.43
2019-04-22T17:43:29.825Z,2.13
2019-04-22T17:45:30.203Z,2.03
2019-04-22T17:47:24.700Z,2.23
2019-04-22T17:49:43.062Z,2.40
2019-04-22T17:51:45.038Z,2.27
2019-04-22T17:53:54.997Z,2.33
2019-04-22T17:55:55.786Z,2.00
2019-04-22T17:58:05.673Z,2.20
2019-04-22T17:59:58.764Z,1.80
2019-04-22T18:02:07.275Z,2.33
2019-04-22T18:04:00.981Z,2.43
2019-04-22T18:06:08.859Z,2.20
2019-04-22T18:08:25.179Z,1.87
2019-04-22T18:10:49.204Z,2.80
2019-04-22T18:12:50.078Z,2.60
2019-04-22T18:14:47.936Z,2.40
2019-04-22T18:16:58.907Z,2.03
2019-04-22T18:18:52.848Z,2.27
2019-04-22T18:21:00.081Z,2.30
2019-04-22T18:22:54.330Z,2.00
2019-04-22T18:25:06.338Z,1.93
2019-04-22T18:27:31.587Z,1.90
2019-04-22T18:29:21.992Z,2.70
2019-04-22T18:31:21.818Z,2.47
2019-04-22T18:33:32.914Z,2.30
2019-04-22T18:35:42.836Z,2.00
2019-04-22T18:37:49.935Z,2.40
2019-04-22T18:39:55.714Z,2.10
2019-04-22T18:41:51.824Z,2.40
2019-04-22T18:44:04.388Z,2.30
2019-04-22T18:46:12.724Z,2.20
2019-04-22T18:48:06.314Z,2.43
2019-04-22T18:50:21.998Z,2.20
2019-04-22T18:52:43.708Z,2.10
2019-04-22T18:54:59.360Z,1.90
2019-04-22T18:57:07.109Z,2.63
2019-04-22T18:58:59.119Z,2.40
2019-04-22T19:00:54.841Z,2.23
2019-04-22T19:03:06.631Z,2.07
2019-04-22T19:05:17.925Z,2.00
2019-04-22T19:07:36.812Z,2.70
2019-04-22T19:09:45.327Z,2.20
2019-04-22T19:11:55.655Z,2.40
2019-04-22T19:16:08.523Z,2.10
2019-04-22T19:18:10.827Z,2.03
2019-04-22T19:20:12.791Z,2.20
2019-04-22T19:22:07.962Z,2.13
2019-04-22T19:24:17.356Z,2.00
2019-04-22T19:26:30.909Z,2.10
2019-04-22T19:30:39.519Z,2.10
2019-04-22T19:32:38.596Z,2.20
2019-04-22T19:34:44.260Z,2.40
2019-04-22T19:36:51.303Z,2.10
2019-04-22T19:38:52.606Z,2.20
2019-04-22T19:41:08.651Z,2.37
2019-04-22T19:43:09.138Z,2.30
2019-04-22T19:45:13.323Z,2.27
2019-04-22T19:49:33.063Z,2.27
2019-04-22T19:51:44.113Z,2.20
2019-04-22T19:53:38.804Z,2.30
2019-04-22T19:55:43.579Z,2.30
2019-04-22T19:57:44.650Z,2.23
2019-04-22T19:59:51.073Z,2.47
2019-04-22T20:02:06.058Z,2.10
2019-04-22T20:06:26.867Z,2.03
2019-04-22T20:08:30.233Z,2.43
2019-04-22T20:10:40.214Z,2.60
2019-04-22T20:12:42.523Z,2.53
2019-04-22T20:14:51.177Z,2.47
2019-04-22T20:16:51.517Z,2.40
2019-04-22T20:19:10.471Z,2.70
2019-04-22T20:21:10.791Z,2.93
2019-04-22T20:23:10.113Z,2.57
2019-04-22T20:25:08.661Z,2.33
2019-04-22T20:27:22.489Z,2.30
2019-04-22T20:29:35.267Z,2.37
2019-04-22T20:31:43.067Z,2.10
2019-04-22T20:33:46.846Z,2.53
2019-04-22T20:35:43.499Z,2.40
2019-04-22T20:37:54.997Z,3.03
2019-04-22T20:39:52.890Z,2.67
2019-04-22T20:42:17.317Z,2.73
2019-04-22T20:44:11.432Z,2.63
2019-04-22T20:46:19.025Z,2.50
2019-04-22T20:48:09.293Z,2.43
2019-04-22T20:50:26.465Z,2.80
2019-04-22T20:52:34.473Z,2.70
2019-04-22T20:54:38.904Z,2.37
2019-04-22T20:56:38.565Z,2.13
2019-04-22T20:58:46.605Z,2.40
2019-04-22T21:00:45.259Z,2.60
2019-04-22T21:02:46.626Z,2.70
2019-04-22T21:04:52.033Z,2.83
2019-04-22T21:07:02.183Z,2.67
2019-04-22T21:09:18.019Z,2.57
2019-04-22T21:11:21.050Z,2.50
2019-04-22T21:13:20.722Z,2.47
2019-04-22T21:15:36.851Z,2.17
2019-04-22T21:17:36.595Z,2.83
2019-04-22T21:19:47.667Z,2.47
2019-04-22T21:21:54.998Z,2.30
2019-04-22T21:23:45.841Z,3.10
2019-04-22T21:25:58.054Z,2.80
2019-04-22T21:28:04.478Z,2.90
2019-04-22T21:30:01.902Z,2.80
2019-04-22T21:32:14.015Z,2.60
2019-04-22T21:34:19.221Z,2.90
2019-04-22T21:36:30.179Z,2.83
2019-04-22T21:38:35.932Z,2.80
2019-04-22T21:40:35.566Z,2.37
2019-04-22T21:42:48.894Z,2.90
2019-04-22T21:44:44.028Z,2.67
2019-04-22T21:47:03.404Z,2.93
2019-04-22T21:48:59.841Z,2.63
2019-04-22T21:51:10.915Z,2.23
2019-04-22T21:53:14.521Z,2.83
2019-04-22T21:55:16.659Z,3.00
2019-04-22T21:57:52.720Z,3.10
2019-04-22T21:59:37.172Z,2.53
2019-04-22T22:01:52.884Z,2.90
2019-04-22T22:03:50.659Z,2.40
2019-04-22T22:05:49.184Z,2.80
2019-04-22T22:07:53.472Z,2.80
2019-04-22T22:10:05.866Z,2.90
2019-04-22T22:12:08.552Z,2.80
2019-04-22T22:14:21.095Z,3.00
2019-04-22T22:16:20.344Z,2.80
2019-04-22T22:18:24.345Z,2.90
2019-04-22T22:20:30.997Z,2.70
2019-04-22T22:24:46.684Z,2.90
2019-04-22T22:26:54.203Z,2.77
2019-04-22T22:31:08.250Z,3.00
2019-04-22T22:33:06.007Z,3.10
2019-04-22T22:35:16.192Z,2.80
2019-04-22T22:37:09.786Z,2.80
2019-04-22T22:39:17.512Z,2.93
2019-04-22T22:41:09.869Z,3.10
2019-04-22T22:43:24.938Z,3.23
2019-04-22T22:45:32.020Z,2.70
2019-04-22T22:47:44.194Z,3.13
2019-04-22T22:49:54.932Z,3.27
2019-04-22T22:52:14.752Z,3.30
2019-04-22T22:54:06.378Z,3.20
2019-04-22T22:56:13.664Z,3.20
2019-04-22T22:58:21.241Z,3.13
2019-04-22T23:00:18.366Z,3.20
2019-04-22T23:02:22.915Z,3.60
2019-04-22T23:04:34.225Z,3.90
2019-04-22T23:06:40.642Z,3.60
2019-04-22T23:08:46.894Z,3.23
2019-04-22T23:10:57.469Z,3.57
2019-04-22T23:12:53.843Z,3.57
2019-04-22T23:14:55.807Z,3.70
2019-04-22T23:16:52.875Z,3.60
2019-04-22T23:19:04.489Z,3.97
2019-04-22T23:21:18.167Z,3.60
2019-04-22T23:23:36.113Z,3.63
2019-04-22T23:25:41.530Z,4.37
2019-04-22T23:27:46.149Z,3.87
2019-04-22T23:30:05.308Z,3.70
2019-04-22T23:32:23.799Z,3.83
2019-04-22T23:34:26.776Z,3.80
2019-04-22T23:36:38.377Z,4.50
2019-04-22T23:38:54.927Z,3.80
2019-04-22T23:40:47.898Z,3.87
2019-04-22T23:42:58.710Z,3.87
2019-04-22T23:45:07.323Z,4.00
2019-04-22T23:47:04.891Z,4.10
2019-04-22T23:49:11.798Z,3.50
2019-04-22T23:51:23.727Z,4.17
2019-04-22T23:54:00.901Z,4.33
2019-04-22T23:55:41.377Z,4.20
2019-04-22T23:57:47.842Z,4.70
